Time;durP1;ratioP1;P1;durP2;ratioP2;P2;SDS_P1;SDS_P2;PMS_P1;PMS_P2;Temp;Humidity;BMP_temperature;BMP_pressure;BME280_temperature;BME280_humidity;BME280_pressure;Samples;Min_cycle;Max_cycle;Signal;HPM_P1;HPM_P2
2023/05/17 00:01:36;;;;;;;16.95;4.88;;;;;;;-143.48;96.66;118439.88;5053273;28;20021;-29
2023/05/17 00:04:01;;;;;;;18.98;5.15;;;;;;;-143.48;97.52;118439.88;5053604;28;20027;-28
2023/05/17 00:06:27;;;;;;;14.85;4.18;;;;;;;-143.48;97.06;118439.88;5053554;28;20026;-28
2023/05/17 00:08:53;;;;;;;19.45;4.43;;;;;;;-143.48;96.35;118439.88;5053524;28;20071;-28
2023/05/17 00:11:18;;;;;;;14.57;4.63;;;;;;;-143.48;97.38;118439.88;5053395;28;20029;-28
2023/05/17 00:13:43;;;;;;;19.38;4.80;;;;;;;-143.48;96.88;118439.88;5053031;28;20088;-29
2023/05/17 00:16:08;;;;;;;15.45;4.78;;;;;;;-143.48;97.38;118439.88;5053506;28;20036;-28
2023/05/17 00:18:34;;;;;;;19.10;4.95;;;;;;;-143.48;96.91;118439.88;5053308;28;20021;-28
2023/05/17 00:20:59;;;;;;;16.65;4.57;;;;;;;-143.48;96.79;118439.88;5053554;28;20083;-28
2023/05/17 00:23:24;;;;;;;23.50;5.30;;;;;;;-143.48;96.29;118439.88;5053356;28;20448;-28
2023/05/17 00:25:50;;;;;;;19.25;4.38;;;;;;;-143.48;96.50;118439.88;5053048;28;20494;-29
2023/05/17 00:28:15;;;;;;;18.60;4.35;;;;;;;-143.48;96.28;118439.88;5053077;28;20078;-28
2023/05/17 00:30:40;;;;;;;20.17;4.82;;;;;;;-143.48;95.79;118439.88;5053526;28;20451;-28
2023/05/17 00:33:06;;;;;;;24.48;4.80;;;;;;;-143.48;95.32;118439.88;5053084;28;20028;-28
2023/05/17 00:35:31;;;;;;;16.60;4.75;;;;;;;-143.48;95.55;118439.88;5053192;28;20031;-28
2023/05/17 00:37:56;;;;;;;17.42;4.50;;;;;;;-143.48;95.05;118439.88;5052887;28;20029;-28
2023/05/17 00:40:22;;;;;;;19.40;5.22;;;;;;;-143.48;95.10;118439.88;5053021;28;20451;-28
2023/05/17 00:42:47;;;;;;;24.42;4.85;;;;;;;-143.48;95.52;118439.88;5053397;28;20371;-28
2023/05/17 00:45:12;;;;;;;17.08;5.65;;;;;;;-143.48;96.31;118439.88;5053159;28;20025;-28
2023/05/17 00:47:38;;;;;;;20.80;5.22;;;;;;;-143.48;96.71;118439.88;5052939;28;20455;-28
2023/05/17 00:50:05;;;;;;;18.25;5.03;;;;;;;-143.48;98.06;118439.88;5052768;28;20033;-28
2023/05/17 00:52:30;;;;;;;18.45;4.80;;;;;;;-143.48;97.09;118439.88;5053886;28;20104;-28
2023/05/17 00:54:56;;;;;;;23.60;4.93;;;;;;;-143.48;96.86;118439.88;5052774;28;20470;-28
2023/05/17 00:57:21;;;;;;;20.73;4.97;;;;;;;-143.48;96.59;118439.88;5053046;28;20095;-28
2023/05/17 00:59:47;;;;;;;23.15;6.85;;;;;;;-143.48;97.37;118439.88;5052779;28;20033;-28
2023/05/17 01:02:12;;;;;;;18.17;4.50;;;;;;;-143.48;96.64;118439.88;5053868;28;20021;-28
2023/05/17 01:04:38;;;;;;;23.98;4.93;;;;;;;-143.48;96.74;118439.88;5052740;28;20111;-28
2023/05/17 01:07:03;;;;;;;15.77;4.57;;;;;;;-143.48;96.80;118439.88;5052626;28;20025;-28
2023/05/17 01:09:29;;;;;;;20.75;4.65;;;;;;;-143.48;96.84;118439.88;5053788;28;20090;-28
2023/05/17 01:11:55;;;;;;;23.90;4.85;;;;;;;-143.48;96.67;118439.88;5056290;28;20030;-28
2023/05/17 01:14:46;;;;;;;18.75;5.15;;;;;;;-143.48;96.47;118439.88;5056134;28;20048;-28
2023/05/17 01:17:17;;;;;;;21.70;4.95;;;;;;;-143.48;96.23;118439.88;5056475;28;20029;-28
2023/05/17 01:19:56;;;;;;;23.92;5.13;;;;;;;-143.48;97.18;118439.88;5056500;28;20029;-28
2023/05/17 01:22:56;;;;;;;21.05;5.07;;;;;;;-143.48;96.80;118439.88;5056181;28;20440;-28
2023/05/17 01:25:27;;;;;;;20.65;4.50;;;;;;;-143.48;96.62;118439.88;5045633;28;20079;-28
2023/05/17 01:27:57;;;;;;;15.57;5.00;;;;;;;-143.48;96.78;118439.88;5056528;28;20356;-28
2023/05/17 01:30:25;;;;;;;21.77;4.78;;;;;;;-143.48;96.57;118439.88;5056448;28;20112;-28
2023/05/17 01:32:51;;;;;;;23.17;4.70;;;;;;;-143.48;96.64;118439.88;5056101;28;20119;-28
2023/05/17 01:35:17;;;;;;;16.15;4.45;;;;;;;-143.48;96.34;118439.88;5055907;28;20032;-28
2023/05/17 01:37:42;;;;;;;16.00;4.40;;;;;;;-143.48;95.98;118439.88;5056141;28;20036;-28
2023/05/17 01:40:08;;;;;;;22.98;4.75;;;;;;;-143.48;96.29;118439.88;5056065;28;20109;-29
2023/05/17 01:42:38;;;;;;;18.98;4.65;;;;;;;-143.48;96.32;118439.88;5055987;28;20036;-28
2023/05/17 01:45:16;;;;;;;24.42;4.72;;;;;;;-143.48;96.35;118439.88;5056053;28;20032;-28
2023/05/17 01:48:00;;;;;;;18.45;5.28;;;;;;;-143.48;97.11;118439.88;5055982;28;20360;-28
2023/05/17 01:50:29;;;;;;;24.13;4.63;;;;;;;-143.48;96.42;118439.88;5055724;28;20122;-29
2023/05/17 01:53:09;;;;;;;16.83;4.47;;;;;;;-143.48;97.00;118439.88;5055827;28;20502;-30
2023/05/17 01:55:47;;;;;;;22.88;5.28;;;;;;;-143.48;97.14;118439.88;5055866;28;20025;-28
2023/05/17 01:58:13;;;;;;;20.25;4.78;;;;;;;-143.48;97.51;118439.88;5055469;28;20544;-28
2023/05/17 02:00:40;;;;;;;18.50;4.55;;;;;;;-143.48;97.60;118439.88;5055257;28;20025;-28
2023/05/17 02:03:05;;;;;;;25.23;4.35;;;;;;;-143.48;97.94;118439.88;5055342;28;20028;-28
2023/05/17 02:05:31;;;;;;;15.35;4.43;;;;;;;-143.48;97.59;118439.88;5055301;28;20024;-28
2023/05/17 02:07:56;;;;;;;19.92;4.68;;;;;;;-143.48;97.27;118439.88;5055676;28;20056;-28
2023/05/17 02:10:21;;;;;;;23.25;4.68;;;;;;;-143.48;97.91;118439.88;5055552;28;20043;-27
2023/05/17 02:12:46;;;;;;;17.52;4.30;;;;;;;-143.48;98.63;118439.88;5055504;28;20028;-28
2023/05/17 02:15:12;;;;;;;19.10;4.43;;;;;;;-143.48;98.85;118439.88;5055461;28;20051;-28
2023/05/17 02:17:39;;;;;;;17.83;4.15;;;;;;;-143.48;98.38;118439.88;5055413;28;20352;-28
2023/05/17 02:20:06;;;;;;;24.05;5.00;;;;;;;-143.48;98.84;118439.88;5055107;28;20494;-28
2023/05/17 02:22:31;;;;;;;13.93;4.38;;;;;;;-143.48;98.63;118439.88;5037340;28;20033;-28
2023/05/17 02:24:57;;;;;;;24.50;5.03;;;;;;;-143.48;99.01;118439.88;5055021;28;20056;-28
2023/05/17 02:27:22;;;;;;;17.02;4.57;;;;;;;-143.48;99.51;118439.88;5054922;28;20531;-28
2023/05/17 02:29:47;;;;;;;19.90;5.25;;;;;;;-143.48;99.67;118439.88;5054915;28;20082;-28
2023/05/17 02:32:13;;;;;;;18.00;4.55;;;;;;;-143.48;99.33;118439.88;5054652;28;20025;-28
2023/05/17 02:34:38;;;;;;;18.55;4.63;;;;;;;-143.48;99.19;118439.88;5055015;28;20117;-28
2023/05/17 02:37:04;;;;;;;22.65;5.30;;;;;;;-143.48;99.45;118439.88;5055083;28;20032;-28
2023/05/17 02:39:32;;;;;;;15.23;4.50;;;;;;;-143.48;98.92;118439.88;5054993;28;20028;-28
2023/05/17 02:41:57;;;;;;;26.63;4.93;;;;;;;-143.48;98.58;118439.88;5053824;28;20021;-28
2023/05/17 02:44:22;;;;;;;18.17;4.30;;;;;;;-143.48;98.45;118439.88;5054293;28;20028;-28
2023/05/17 02:46:48;;;;;;;24.42;5.72;;;;;;;-143.48;98.48;118439.88;5052557;28;20056;-28
2023/05/17 02:49:13;;;;;;;23.85;4.55;;;;;;;-143.48;98.30;118439.88;5052427;28;20021;-28
2023/05/17 02:51:38;;;;;;;20.85;4.82;;;;;;;-143.48;98.76;118439.88;5052641;28;20554;-28
2023/05/17 02:54:04;;;;;;;23.30;4.90;;;;;;;-143.48;98.25;118439.88;5052336;28;20047;-28
2023/05/17 02:56:29;;;;;;;19.40;4.20;;;;;;;-143.48;97.92;118439.88;5052124;28;20077;-28
2023/05/17 02:58:56;;;;;;;16.13;4.35;;;;;;;-143.48;97.10;118439.88;5052539;28;20024;-28
2023/05/17 03:01:22;;;;;;;21.58;3.97;;;;;;;-143.48;97.05;118439.88;5054277;28;20028;-29
2023/05/17 03:03:47;;;;;;;20.83;4.93;;;;;;;-143.48;97.62;118439.88;5054800;28;20029;-28
2023/05/17 03:06:13;;;;;;;22.45;4.40;;;;;;;-143.48;97.60;118439.88;5054404;28;20082;-28
2023/05/17 03:08:39;;;;;;;17.25;3.75;;;;;;;-143.48;97.84;118439.88;5054680;28;20402;-28
2023/05/17 03:11:04;;;;;;;24.88;4.22;;;;;;;-143.48;96.19;118439.88;5054368;28;20025;-28
2023/05/17 03:13:30;;;;;;;15.77;3.17;;;;;;;-143.48;94.49;118439.88;5053996;28;20051;-28
2023/05/17 03:15:55;;;;;;;18.58;3.50;;;;;;;-143.48;94.25;118439.88;5053945;28;20041;-28
2023/05/17 03:18:20;;;;;;;23.88;3.60;;;;;;;-143.48;93.70;118439.88;5054428;28;20078;-28
2023/05/17 03:20:46;;;;;;;15.65;3.65;;;;;;;-143.48;91.09;118439.88;5054220;28;20434;-29
2023/05/17 03:23:11;;;;;;;21.85;3.10;;;;;;;-143.48;88.83;118439.88;5054184;28;20025;-28
2023/05/17 03:25:36;;;;;;;19.70;3.42;;;;;;;-143.48;90.22;118439.88;5054189;28;20028;-28
2023/05/17 03:28:02;;;;;;;20.08;2.83;;;;;;;-143.48;89.52;118439.88;5053825;28;20025;-28
2023/05/17 03:30:27;;;;;;;14.95;3.08;;;;;;;-143.48;90.22;118439.88;5053926;28;20032;-28
2023/05/17 03:32:53;;;;;;;15.57;2.78;;;;;;;-143.48;91.80;118439.88;5053286;28;20117;-28
2023/05/17 03:35:18;;;;;;;20.55;3.40;;;;;;;-143.48;91.59;118439.88;5054161;28;20032;-28
2023/05/17 03:37:43;;;;;;;13.98;3.38;;;;;;;-143.48;92.16;118439.88;5054007;28;20021;-28
2023/05/17 03:40:09;;;;;;;21.27;3.42;;;;;;;-143.48;90.32;118439.88;5053605;28;20464;-28
2023/05/17 03:42:35;;;;;;;13.32;2.75;;;;;;;-143.48;90.48;118439.88;5053915;28;20040;-29
2023/05/17 03:45:01;;;;;;;18.17;2.72;;;;;;;-143.48;90.53;118439.88;5053854;28;20490;-28
2023/05/17 03:47:26;;;;;;;19.90;3.15;;;;;;;-143.48;89.96;118439.88;5053796;28;20016;-28
2023/05/17 03:49:51;;;;;;;17.10;3.10;;;;;;;-143.48;89.90;118439.88;5054027;28;20040;-28
2023/05/17 03:52:16;;;;;;;21.77;3.17;;;;;;;-143.48;89.71;118439.88;5054262;28;20467;-28
2023/05/17 03:54:43;;;;;;;17.98;2.80;;;;;;;-143.48;90.04;118439.88;5053723;28;20136;-29
2023/05/17 03:57:08;;;;;;;17.02;2.80;;;;;;;-143.48;90.38;118439.88;5053460;28;20506;-29
2023/05/17 03:59:33;;;;;;;18.45;3.33;;;;;;;-143.48;89.49;118439.88;5053694;28;20033;-29
2023/05/17 04:01:59;;;;;;;16.35;2.80;;;;;;;-143.48;89.75;118439.88;5053598;28;20460;-29
2023/05/17 04:04:24;;;;;;;16.95;3.20;;;;;;;-143.48;89.31;118439.88;5053836;28;20048;-27
2023/05/17 04:06:49;;;;;;;20.52;2.80;;;;;;;-143.48;89.37;118439.88;5053606;28;20384;-28
2023/05/17 04:09:14;;;;;;;16.55;2.60;;;;;;;-143.48;89.18;118439.88;5053312;28;20111;-29
2023/05/17 04:11:41;;;;;;;19.85;3.22;;;;;;;-143.48;89.44;118439.88;5053431;28;20070;-28
2023/05/17 04:14:06;;;;;;;19.17;3.10;;;;;;;-143.48;90.32;118439.88;5053223;28;20467;-33
2023/05/17 04:16:32;;;;;;;16.85;2.40;;;;;;;-143.48;90.61;118439.88;5053205;28;20060;-28
2023/05/17 04:18:59;;;;;;;23.90;3.53;;;;;;;-143.48;90.85;118439.88;5053436;28;20021;-28
2023/05/17 04:21:25;;;;;;;20.90;3.10;;;;;;;-143.48;89.83;118439.88;5053171;28;20021;-28
2023/05/17 04:23:50;;;;;;;18.63;2.72;;;;;;;-143.48;89.72;118439.88;5053081;28;20036;-28
2023/05/17 04:26:16;;;;;;;13.90;2.65;;;;;;;-143.48;89.57;118439.88;5053672;28;20057;-28
2023/05/17 04:28:41;;;;;;;15.73;2.67;;;;;;;-143.48;89.36;118439.88;5053326;28;20348;-29
2023/05/17 04:31:07;;;;;;;10.48;2.30;;;;;;;-143.48;89.73;118439.88;5053227;28;20518;-30
2023/05/17 04:33:32;;;;;;;10.32;2.50;;;;;;;-143.48;90.35;118439.88;5052935;28;20112;-29
2023/05/17 04:35:58;;;;;;;18.73;2.90;;;;;;;-143.48;90.56;118439.88;5052937;28;20107;-29
2023/05/17 04:38:23;;;;;;;17.20;3.10;;;;;;;-143.48;90.16;118439.88;5053612;28;20105;-29
2023/05/17 04:40:49;;;;;;;14.85;2.95;;;;;;;-143.48;89.32;118439.88;5053579;28;20075;-29
2023/05/17 04:43:15;;;;;;;14.52;3.25;;;;;;;-143.48;88.84;118439.88;5034999;28;20078;-29
2023/05/17 04:45:40;;;;;;;14.90;3.25;;;;;;;-143.48;88.30;118439.88;5056635;28;20070;-29
2023/05/17 04:48:05;;;;;;;16.98;2.58;;;;;;;-143.48;87.82;118439.88;5057012;28;20021;-29
2023/05/17 04:50:31;;;;;;;21.73;2.78;;;;;;;-143.48;88.02;118439.88;5056828;28;20021;-29
2023/05/17 04:52:56;;;;;;;21.02;3.20;;;;;;;-143.48;86.90;118439.88;5056685;28;20107;-29
2023/05/17 04:55:21;;;;;;;15.25;2.58;;;;;;;-143.48;86.66;118439.88;5057079;28;20106;-29
2023/05/17 04:57:47;;;;;;;19.00;2.95;;;;;;;-143.48;87.20;118439.88;5056741;28;20048;-29
2023/05/17 05:00:14;;;;;;;20.90;3.17;;;;;;;-143.48;88.29;118439.88;5056444;28;20033;-29
2023/05/17 05:02:39;;;;;;;20.13;2.50;;;;;;;-143.48;86.72;118439.88;5056470;28;20037;-29
2023/05/17 05:05:05;;;;;;;17.33;2.88;;;;;;;-143.48;86.09;118439.88;5056405;28;20099;-29
2023/05/17 05:07:31;;;;;;;21.48;3.53;;;;;;;-143.48;86.25;118439.88;5057137;28;20052;-29
2023/05/17 05:09:56;;;;;;;19.55;3.45;;;;;;;-143.48;84.32;118439.88;5056381;28;20357;-29
2023/05/17 05:12:21;;;;;;;16.90;2.75;;;;;;;-143.48;82.77;118439.88;5056321;28;20590;-33
2023/05/17 05:14:47;;;;;;;19.17;2.60;;;;;;;-143.48;84.11;118439.88;5056167;28;20051;-33
2023/05/17 05:17:12;;;;;;;22.38;3.15;;;;;;;-143.48;83.70;118439.88;5056019;28;20086;-33
2023/05/17 05:19:37;;;;;;;17.08;2.90;;;;;;;-143.48;84.06;118439.88;5056378;28;20023;-33
2023/05/17 05:22:02;;;;;;;15.95;3.13;;;;;;;-143.48;84.09;118439.88;5056041;28;20021;-33
2023/05/17 05:24:28;;;;;;;20.52;3.40;;;;;;;-143.48;83.48;118439.88;5056042;28;20033;-33
2023/05/17 05:26:53;;;;;;;17.02;3.00;;;;;;;-143.48;83.91;118439.88;5056005;28;20025;-33
2023/05/17 05:29:18;;;;;;;18.65;2.97;;;;;;;-143.48;83.53;118439.88;5055888;28;20115;-32
2023/05/17 05:31:45;;;;;;;15.20;2.85;;;;;;;-143.48;82.64;118439.88;5055916;28;20367;-33
2023/05/17 05:34:10;;;;;;;20.25;3.08;;;;;;;-143.48;80.95;118439.88;5056128;28;20025;-33
2023/05/17 05:36:36;;;;;;;19.45;3.50;;;;;;;-143.48;80.63;118439.88;5056087;28;20486;-34
2023/05/17 05:39:01;;;;;;;21.05;3.15;;;;;;;-143.48;78.99;118439.88;5056127;28;20032;-33
2023/05/17 05:41:27;;;;;;;14.88;2.83;;;;;;;-143.48;77.08;118439.88;5055933;28;20013;-33
2023/05/17 05:43:52;;;;;;;20.00;3.03;;;;;;;-143.48;76.88;118439.88;5055642;28;20040;-33
2023/05/17 05:46:17;;;;;;;19.35;3.00;;;;;;;-143.48;74.35;118439.88;5055636;28;20020;-33
2023/05/17 05:48:43;;;;;;;18.25;2.70;;;;;;;-143.48;74.62;118439.88;5055765;28;20025;-32
2023/05/17 05:51:09;;;;;;;15.02;2.60;;;;;;;-143.48;66.01;118439.88;5055277;28;20029;-33
2023/05/17 05:53:35;;;;;;;18.40;2.92;;;;;;;-143.48;52.26;118439.88;5055709;28;20069;-33
2023/05/17 05:56:00;;;;;;;20.55;2.90;;;;;;;-143.48;45.92;118439.88;5054950;28;20017;-34
2023/05/17 05:58:25;;;;;;;13.23;2.65;;;;;;;-143.48;43.55;118439.88;5055725;28;20021;-34
2023/05/17 06:00:50;;;;;;;13.77;2.72;;;;;;;-143.48;44.58;118439.88;5055697;28;20021;-34
2023/05/17 06:03:16;;;;;;;11.25;2.53;;;;;;;-143.48;42.62;118439.88;5055611;28;20100;-35
2023/05/17 06:05:41;;;;;;;12.43;2.45;;;;;;;-143.48;42.34;118439.88;5055762;28;20031;-34
2023/05/17 06:08:07;;;;;;;9.57;2.60;;;;;;;-143.48;42.00;118439.88;5055455;28;20025;-33
2023/05/17 06:10:32;;;;;;;12.73;2.92;;;;;;;-143.48;44.36;118439.88;5037399;28;20021;-33
2023/05/17 06:12:58;;;;;;;13.27;2.55;;;;;;;-143.48;43.46;118439.88;5055384;28;20025;-33
2023/05/17 06:15:23;;;;;;;13.30;3.20;;;;;;;-143.48;41.75;118439.88;5055050;28;20052;-33
2023/05/17 06:17:48;;;;;;;12.75;2.60;;;;;;;-143.48;40.55;118439.88;5055418;28;20017;-33
2023/05/17 06:20:16;;;;;;;16.17;2.88;;;;;;;-143.48;43.54;118439.88;5055396;28;20033;-33
2023/05/17 06:22:42;;;;;;;11.55;2.72;;;;;;;-143.48;44.85;118439.88;5054545;28;20079;-33
2023/05/17 06:25:09;;;;;;;15.48;2.55;;;;;;;-143.48;42.59;118439.88;5036120;28;20017;-33
2023/05/17 06:27:34;;;;;;;12.48;2.88;;;;;;;-143.48;41.32;118439.88;5054590;28;20490;-33
2023/05/17 06:30:00;;;;;;;11.13;2.75;;;;;;;-143.48;41.69;118439.88;5054308;28;20029;-33
2023/05/17 06:32:25;;;;;;;12.43;2.67;;;;;;;-143.48;39.53;118439.88;5053954;28;20078;-33
2023/05/17 06:34:50;;;;;;;10.68;2.30;;;;;;;-143.48;40.73;118439.88;5054397;28;20102;-33
2023/05/17 06:37:16;;;;;;;13.32;2.65;;;;;;;-143.48;48.33;118439.88;5054350;28;20035;-33
2023/05/17 06:39:41;;;;;;;12.35;2.50;;;;;;;-143.48;51.20;118439.88;5055043;28;20107;-33
2023/05/17 06:42:06;;;;;;;11.77;2.40;;;;;;;-143.48;52.81;118439.88;5053814;28;20027;-33
2023/05/17 06:44:32;;;;;;;14.07;2.55;;;;;;;-143.48;53.19;118439.88;5055052;28;20028;-33
2023/05/17 06:46:59;;;;;;;12.48;2.50;;;;;;;-143.48;51.20;118439.88;5036937;28;20021;-33
2023/05/17 06:49:25;;;;;;;11.27;2.25;;;;;;;-143.48;55.22;118439.88;5054450;28;20078;-35
2023/05/17 06:51:50;;;;;;;9.98;2.10;;;;;;;-143.48;44.28;118439.88;5054596;28;20024;-33
2023/05/17 06:54:18;;;;;;;9.00;1.85;;;;;;;-143.48;44.40;118439.88;5053335;28;20033;-33
2023/05/17 06:56:43;;;;;;;12.25;2.53;;;;;;;-143.48;46.05;118439.88;5052637;28;20035;-33
2023/05/17 06:59:09;;;;;;;14.73;2.38;;;;;;;-143.48;49.40;118439.88;5054551;28;20467;-33
2023/05/17 07:01:34;;;;;;;12.70;2.55;;;;;;;-143.48;44.21;118439.88;5036527;28;20025;-33
2023/05/17 07:04:00;;;;;;;12.25;2.00;;;;;;;-143.48;50.42;118439.88;5036486;28;20028;-33
2023/05/17 07:06:25;;;;;;;13.75;2.22;;;;;;;-143.48;46.34;118439.88;5054756;28;20020;-33
2023/05/17 07:08:50;;;;;;;12.90;2.25;;;;;;;-143.48;42.61;118439.88;5054115;28;20025;-33
2023/05/17 07:11:16;;;;;;;17.98;2.13;;;;;;;-143.48;42.18;118439.88;5053950;28;20104;-33
2023/05/17 07:13:41;;;;;;;10.77;2.10;;;;;;;-143.48;46.85;118439.88;5053958;28;20356;-32
2023/05/17 07:16:07;;;;;;;13.75;2.03;;;;;;;-143.48;42.62;118439.88;5054394;28;20067;-33
2023/05/17 07:18:32;;;;;;;13.40;2.05;;;;;;;-143.48;43.74;118439.88;5054254;28;20047;-32
2023/05/17 07:20:58;;;;;;;10.82;2.10;;;;;;;-143.48;43.76;118439.88;5053880;28;20096;-32
2023/05/17 07:23:23;;;;;;;12.95;2.00;;;;;;;-143.48;44.36;118439.88;5054543;28;20032;-32
2023/05/17 07:25:48;;;;;;;12.15;1.80;;;;;;;-143.48;46.92;118439.88;5053462;28;20061;-32
2023/05/17 07:28:14;;;;;;;11.55;1.88;;;;;;;-143.48;45.65;118439.88;5053700;28;20138;-33
2023/05/17 07:30:39;;;;;;;10.18;1.95;;;;;;;-143.48;42.44;118439.88;5053505;28;20471;-34
2023/05/17 07:33:05;;;;;;;10.32;2.08;;;;;;;-143.48;42.42;118439.88;5053843;28;20021;-34
2023/05/17 07:35:30;;;;;;;8.57;1.85;;;;;;;-143.48;43.94;118439.88;5054040;28;20100;-33
2023/05/17 07:37:55;;;;;;;14.35;2.30;;;;;;;-143.48;43.03;118439.88;5052734;28;20464;-33
2023/05/17 07:40:21;;;;;;;6.93;1.75;;;;;;;-143.48;45.23;118439.88;5053920;28;20108;-33
2023/05/17 07:42:46;;;;;;;10.50;2.13;;;;;;;-143.48;46.84;118439.88;5035673;28;20482;-33
2023/05/17 07:45:11;;;;;;;10.43;1.88;;;;;;;-143.48;44.69;118439.88;5053842;28;20021;-34
2023/05/17 07:47:37;;;;;;;11.52;2.05;;;;;;;-143.48;44.76;118439.88;5053473;28;20036;-32
2023/05/17 07:50:03;;;;;;;9.27;1.92;;;;;;;-143.48;42.76;118439.88;5053847;28;20023;-33
2023/05/17 07:52:28;;;;;;;7.40;1.83;;;;;;;-143.48;41.49;118439.88;5053369;28;20514;-34
2023/05/17 07:54:53;;;;;;;12.85;2.35;;;;;;;-143.48;41.25;118439.88;5053690;28;20020;-34
2023/05/17 07:57:19;;;;;;;8.75;2.08;;;;;;;-143.48;42.26;118439.88;5053956;28;20032;-39
2023/05/17 07:59:44;;;;;;;13.23;1.70;;;;;;;-143.48;41.15;118439.88;5053502;28;20096;-34
2023/05/17 08:02:09;;;;;;;10.65;1.75;;;;;;;-143.48;41.55;118439.88;5053365;28;20116;-33
2023/05/17 08:04:35;;;;;;;9.32;1.98;;;;;;;-143.48;42.13;118439.88;5053362;28;20021;-34
2023/05/17 08:07:01;;;;;;;7.60;1.90;;;;;;;-143.48;40.16;118439.88;5052811;28;20021;-34
2023/05/17 08:09:26;;;;;;;8.88;2.20;;;;;;;-143.48;40.79;118439.88;5051170;28;20391;-34
2023/05/17 08:11:51;;;;;;;9.27;1.80;;;;;;;-143.48;42.58;118439.88;5051186;28;20526;-34
2023/05/17 08:14:17;;;;;;;9.52;2.08;;;;;;;-143.48;43.76;118439.88;5050916;28;20106;-34
2023/05/17 08:16:44;;;;;;;7.65;1.80;;;;;;;-143.48;42.89;118439.88;5051079;28;20028;-34
2023/05/17 08:19:14;;;;;;;8.63;1.58;;;;;;;-143.48;41.26;118439.88;5052956;28;20052;-34
2023/05/17 08:21:41;;;;;;;6.43;1.90;;;;;;;-143.48;40.19;118439.88;5055495;28;20052;-34
2023/05/17 08:24:07;;;;;;;13.05;1.98;;;;;;;-143.48;38.85;118439.88;5057434;28;20021;-34
2023/05/17 08:26:32;;;;;;;8.07;1.80;;;;;;;-143.48;38.16;118439.88;5057090;28;20083;-34
2023/05/17 08:29:04;;;;;;;7.82;1.63;;;;;;;-143.48;40.03;118439.88;5057362;28;20104;-34
2023/05/17 08:31:31;;;;;;;9.68;1.75;;;;;;;-143.48;41.15;118439.88;5057010;28;20116;-33
2023/05/17 08:33:56;;;;;;;9.25;2.10;;;;;;;-143.48;42.21;118439.88;5057207;28;20552;-34
2023/05/17 08:36:21;;;;;;;11.60;1.95;;;;;;;-143.48;40.80;118439.88;5057270;28;20104;-34
2023/05/17 08:38:47;;;;;;;7.97;1.58;;;;;;;-143.48;39.91;118439.88;5057068;28;20029;-34
2023/05/17 08:41:12;;;;;;;11.48;1.63;;;;;;;-143.48;41.50;118439.88;5057052;28;20075;-34
2023/05/17 08:43:38;;;;;;;10.25;2.30;;;;;;;-143.48;40.61;118439.88;5057142;28;20029;-34
2023/05/17 08:46:04;;;;;;;9.50;2.03;;;;;;;-143.48;38.68;118439.88;5057089;28;20514;-34
2023/05/17 08:48:30;;;;;;;9.10;1.70;;;;;;;-143.48;40.27;118439.88;5057334;28;20033;-34
2023/05/17 08:51:00;;;;;;;8.77;1.80;;;;;;;-143.48;42.95;118439.88;5056772;28;20021;-34
2023/05/17 08:53:25;;;;;;;5.95;1.52;;;;;;;-143.48;40.63;118439.88;5056783;28;20021;-34
2023/05/17 08:55:56;;;;;;;9.60;2.30;;;;;;;-143.48;39.79;118439.88;5057281;28;20036;-33
2023/05/17 08:58:26;;;;;;;8.80;1.80;;;;;;;-143.48;39.75;118439.88;5056862;28;20375;-34
2023/05/17 09:00:53;;;;;;;8.23;1.60;;;;;;;-143.48;40.56;118439.88;5056602;28;20017;-35
2023/05/17 09:03:21;;;;;;;9.32;1.95;;;;;;;-143.48;39.39;118439.88;5057108;28;20060;-33
2023/05/17 09:05:49;;;;;;;10.32;2.20;;;;;;;-143.48;39.21;118439.88;5056687;28;20048;-33
2023/05/17 09:08:14;;;;;;;9.88;2.00;;;;;;;-143.48;38.77;118439.88;5057011;28;20099;-33
2023/05/17 09:10:41;;;;;;;11.80;1.73;;;;;;;-143.48;38.21;118439.88;5056229;28;20452;-33
2023/05/17 09:13:06;;;;;;;7.93;2.00;;;;;;;-143.48;37.11;118439.88;5056550;28;20033;-33
2023/05/17 09:15:33;;;;;;;6.95;1.70;;;;;;;-143.48;36.29;118439.88;5056083;28;20395;-33
2023/05/17 09:17:58;;;;;;;11.55;1.70;;;;;;;-143.48;38.82;118439.88;5056394;28;20106;-33
2023/05/17 09:20:32;;;;;;;7.78;2.00;;;;;;;-143.48;39.04;118439.88;5056112;28;20029;-33
2023/05/17 09:22:59;;;;;;;8.02;1.90;;;;;;;-143.48;40.11;118439.88;5056380;28;20033;-33
2023/05/17 09:25:25;;;;;;;6.93;1.42;;;;;;;-143.48;39.50;118439.88;5056468;28;20472;-33
2023/05/17 09:27:55;;;;;;;12.57;2.05;;;;;;;-143.48;39.47;118439.88;5056348;28;20426;-33
2023/05/17 09:30:31;;;;;;;8.43;2.28;;;;;;;-143.48;37.99;118439.88;5054674;28;20059;-34
2023/05/17 09:32:57;;;;;;;10.40;1.55;;;;;;;-143.48;38.89;118439.88;5056127;28;20038;-33
2023/05/17 09:35:33;;;;;;;7.35;1.40;;;;;;;-143.48;36.01;118439.88;5056315;28;20025;-33
2023/05/17 09:38:10;;;;;;;6.85;1.40;;;;;;;-143.48;37.26;118439.88;5055942;28;20379;-33
2023/05/17 09:40:43;;;;;;;7.95;1.55;;;;;;;-143.48;37.58;118439.88;5056174;28;20464;-33
2023/05/17 09:43:09;;;;;;;7.15;1.42;;;;;;;-143.48;36.57;118439.88;5055659;28;20082;-32
2023/05/17 09:45:35;;;;;;;6.72;1.48;;;;;;;-143.48;36.81;118439.88;5055908;28;20070;-33
2023/05/17 09:48:17;;;;;;;9.63;1.85;;;;;;;-143.48;35.16;118439.88;5055751;28;20477;-33
2023/05/17 09:50:47;;;;;;;6.57;1.80;;;;;;;-143.48;35.64;118439.88;5056220;28;20033;-32
2023/05/17 09:53:30;;;;;;;11.82;2.05;;;;;;;-143.48;36.36;118439.88;5056665;28;20025;-33
2023/05/17 09:55:57;;;;;;;7.38;1.67;;;;;;;-143.48;36.02;118439.88;5055677;28;20029;-33
2023/05/17 09:58:23;;;;;;;7.90;1.73;;;;;;;-143.48;37.55;118439.88;5055573;28;20036;-34
2023/05/17 10:00:57;;;;;;;5.70;1.65;;;;;;;-143.48;36.24;118439.88;5055560;28;20028;-33
2023/05/17 10:03:25;;;;;;;11.02;1.92;;;;;;;-143.48;36.15;118439.88;5055666;28;20028;-34
2023/05/17 10:05:52;;;;;;;7.82;1.95;;;;;;;-143.48;35.59;118439.88;5055544;28;20020;-34
2023/05/17 10:08:22;;;;;;;7.40;1.80;;;;;;;-143.48;35.78;118439.88;5055459;28;20025;-34
2023/05/17 10:10:49;;;;;;;6.90;1.42;;;;;;;-143.48;36.75;118439.88;5055195;28;20025;-36
2023/05/17 10:13:19;;;;;;;6.10;1.52;;;;;;;-143.48;36.17;118439.88;5037460;28;20021;-34
2023/05/17 10:15:45;;;;;;;9.55;1.67;;;;;;;-143.48;36.13;118439.88;5055073;28;20548;-33
2023/05/17 10:18:11;;;;;;;6.18;1.60;;;;;;;-143.48;35.06;118439.88;5055542;28;20167;-34
2023/05/17 10:20:37;;;;;;;9.95;1.88;;;;;;;-143.48;36.22;118439.88;5055136;28;20037;-34
2023/05/17 10:23:05;;;;;;;18.58;1.95;;;;;;;-143.48;34.53;118439.88;5055384;28;20025;-34
2023/05/17 10:25:30;;;;;;;9.68;1.90;;;;;;;-143.48;34.92;118439.88;5055374;28;20025;-34
2023/05/17 10:27:57;;;;;;;9.32;1.90;;;;;;;-143.48;33.96;118439.88;5037531;28;20035;-34
2023/05/17 10:30:24;;;;;;;9.15;1.77;;;;;;;-143.48;34.62;118439.88;5037395;28;20029;-34
2023/05/17 10:32:50;;;;;;;9.43;1.60;;;;;;;-143.48;35.63;118439.88;5054826;28;20027;-34
2023/05/17 10:35:17;;;;;;;8.45;1.88;;;;;;;-143.48;35.85;118439.88;5055192;28;20028;-34
2023/05/17 10:37:42;;;;;;;11.20;2.03;;;;;;;-143.48;34.79;118439.88;5054700;28;20027;-35
2023/05/17 10:40:16;;;;;;;7.40;1.70;;;;;;;-143.48;35.09;118439.88;5055042;28;20029;-34
2023/05/17 10:42:45;;;;;;;8.77;2.10;;;;;;;-143.48;35.25;118439.88;5054756;28;20407;-34
2023/05/17 10:45:12;;;;;;;8.93;1.80;;;;;;;-143.48;35.55;118439.88;5054950;28;20025;-34
2023/05/17 10:47:41;;;;;;;9.65;1.90;;;;;;;-143.48;35.49;118439.88;5037220;28;20422;-34
2023/05/17 10:50:13;;;;;;;10.50;1.83;;;;;;;-143.48;34.31;118439.88;5054539;28;20033;-35
2023/05/17 10:52:46;;;;;;;8.98;1.60;;;;;;;-143.48;34.14;118439.88;5054822;28;20379;-34
2023/05/17 10:55:11;;;;;;;7.72;1.83;;;;;;;-143.48;34.67;118439.88;5054755;28;20486;-34
2023/05/17 10:57:37;;;;;;;6.65;1.65;;;;;;;-143.48;35.85;118439.88;5055299;28;20021;-34
2023/05/17 11:00:07;;;;;;;10.85;1.90;;;;;;;-143.48;34.72;118439.88;5054415;28;20027;-34
2023/05/17 11:02:38;;;;;;;8.65;2.22;;;;;;;-143.48;34.33;118439.88;5054856;28;20017;-34